sensor_id;sensor_type;location;lat;lon;timestamp;temperature;humidity
68128;SHT30;54931;52.098;21.006;2022-09-09T00:04:44;12.09;83.84
68128;SHT30;54931;52.098;21.006;2022-09-09T00:16:14;11.94;84.81
68128;SHT30;54931;52.098;21.006;2022-09-09T00:21:23;11.91;84.88
68128;SHT30;54931;52.098;21.006;2022-09-09T00:23:59;11.86;85.47
68128;SHT30;54931;52.098;21.006;2022-09-09T00:32:13;11.77;85.84
68128;SHT30;54931;52.098;21.006;2022-09-09T00:34:47;11.76;85.92
68128;SHT30;54931;52.098;21.006;2022-09-09T00:37:23;11.76;85.87
68128;SHT30;54931;52.098;21.006;2022-09-09T00:39:55;11.77;85.92
68128;SHT30;54931;52.098;21.006;2022-09-09T00:42:33;11.75;86.22
68128;SHT30;54931;52.098;21.006;2022-09-09T00:47:50;11.74;86.33
68128;SHT30;54931;52.098;21.006;2022-09-09T00:50:31;11.74;86.43
68128;SHT30;54931;52.098;21.006;2022-09-09T00:58:23;11.75;86.59
68128;SHT30;54931;52.098;21.006;2022-09-09T01:00:51;11.76;86.64
68128;SHT30;54931;52.098;21.006;2022-09-09T01:06:02;11.75;86.75
68128;SHT30;54931;52.098;21.006;2022-09-09T01:17:03;11.81;86.46
68128;SHT30;54931;52.098;21.006;2022-09-09T01:27:35;11.81;86.76
68128;SHT30;54931;52.098;21.006;2022-09-09T01:30:10;11.86;86.60
68128;SHT30;54931;52.098;21.006;2022-09-09T01:32:44;11.84;86.79
68128;SHT30;54931;52.098;21.006;2022-09-09T01:35:15;11.88;86.67
68128;SHT30;54931;52.098;21.006;2022-09-09T01:37:58;11.87;86.95
68128;SHT30;54931;52.098;21.006;2022-09-09T01:40:25;11.89;86.82
68128;SHT30;54931;52.098;21.006;2022-09-09T01:42:52;11.92;86.55
68128;SHT30;54931;52.098;21.006;2022-09-09T01:45:21;11.92;86.86
68128;SHT30;54931;52.098;21.006;2022-09-09T01:47:50;11.95;86.72
68128;SHT30;54931;52.098;21.006;2022-09-09T01:50:19;11.97;86.62
68128;SHT30;54931;52.098;21.006;2022-09-09T01:52:48;11.98;86.61
68128;SHT30;54931;52.098;21.006;2022-09-09T01:55:20;11.98;86.70
68128;SHT30;54931;52.098;21.006;2022-09-09T02:00:25;11.97;86.67
68128;SHT30;54931;52.098;21.006;2022-09-09T02:06:05;12.03;86.55
68128;SHT30;54931;52.098;21.006;2022-09-09T02:08:46;12.04;86.62
68128;SHT30;54931;52.098;21.006;2022-09-09T02:13:45;12.11;86.33
68128;SHT30;54931;52.098;21.006;2022-09-09T02:18:52;12.16;86.18
68128;SHT30;54931;52.098;21.006;2022-09-09T02:21:27;12.14;86.52
68128;SHT30;54931;52.098;21.006;2022-09-09T02:23:58;12.13;86.57
68128;SHT30;54931;52.098;21.006;2022-09-09T02:26:26;12.10;86.92
68128;SHT30;54931;52.098;21.006;2022-09-09T02:28:55;12.07;86.88
68128;SHT30;54931;52.098;21.006;2022-09-09T02:31:25;12.08;86.93
68128;SHT30;54931;52.098;21.006;2022-09-09T02:33:56;12.08;86.90
68128;SHT30;54931;52.098;21.006;2022-09-09T02:36:28;12.07;86.86
68128;SHT30;54931;52.098;21.006;2022-09-09T02:38:59;12.07;87.01
68128;SHT30;54931;52.098;21.006;2022-09-09T02:41:28;12.09;86.98
68128;SHT30;54931;52.098;21.006;2022-09-09T02:43:59;12.09;87.08
68128;SHT30;54931;52.098;21.006;2022-09-09T02:47:01;12.08;87.21
68128;SHT30;54931;52.098;21.006;2022-09-09T02:49:43;12.09;86.99
68128;SHT30;54931;52.098;21.006;2022-09-09T02:58:09;12.12;87.20
68128;SHT30;54931;52.098;21.006;2022-09-09T03:00:39;12.12;87.14
68128;SHT30;54931;52.098;21.006;2022-09-09T03:03:07;12.14;87.21
68128;SHT30;54931;52.098;21.006;2022-09-09T03:05:35;12.15;87.25
68128;SHT30;54931;52.098;21.006;2022-09-09T03:08:03;12.16;87.10
68128;SHT30;54931;52.098;21.006;2022-09-09T03:10:32;12.18;86.88
68128;SHT30;54931;52.098;21.006;2022-09-09T03:12:59;12.20;87.00
68128;SHT30;54931;52.098;21.006;2022-09-09T03:15:26;12.20;87.36
68128;SHT30;54931;52.098;21.006;2022-09-09T03:17:57;12.19;87.33
68128;SHT30;54931;52.098;21.006;2022-09-09T03:20:26;12.14;87.39
68128;SHT30;54931;52.098;21.006;2022-09-09T03:22:54;12.15;87.47
68128;SHT30;54931;52.098;21.006;2022-09-09T03:25:22;12.16;87.70
68128;SHT30;54931;52.098;21.006;2022-09-09T03:27:51;12.15;87.75
68128;SHT30;54931;52.098;21.006;2022-09-09T03:30:24;12.16;87.47
68128;SHT30;54931;52.098;21.006;2022-09-09T03:32:53;12.18;87.55
68128;SHT30;54931;52.098;21.006;2022-09-09T03:35:21;12.16;87.80
68128;SHT30;54931;52.098;21.006;2022-09-09T03:37:48;12.21;87.55
68128;SHT30;54931;52.098;21.006;2022-09-09T03:40:15;12.20;87.88
68128;SHT30;54931;52.098;21.006;2022-09-09T03:42:42;12.22;87.49
68128;SHT30;54931;52.098;21.006;2022-09-09T03:45:09;12.23;87.55
68128;SHT30;54931;52.098;21.006;2022-09-09T03:47:37;12.25;87.56
68128;SHT30;54931;52.098;21.006;2022-09-09T03:50:05;12.24;87.57
68128;SHT30;54931;52.098;21.006;2022-09-09T03:52:38;12.26;87.48
68128;SHT30;54931;52.098;21.006;2022-09-09T03:55:07;12.23;87.87
68128;SHT30;54931;52.098;21.006;2022-09-09T03:57:34;12.23;87.74
68128;SHT30;54931;52.098;21.006;2022-09-09T04:00:05;12.26;87.91
68128;SHT30;54931;52.098;21.006;2022-09-09T04:02:33;12.27;88.01
68128;SHT30;54931;52.098;21.006;2022-09-09T04:05:00;12.27;88.13
68128;SHT30;54931;52.098;21.006;2022-09-09T04:07:27;12.30;87.77
68128;SHT30;54931;52.098;21.006;2022-09-09T04:09:54;12.33;87.69
68128;SHT30;54931;52.098;21.006;2022-09-09T04:12:22;12.35;87.70
68128;SHT30;54931;52.098;21.006;2022-09-09T04:14:49;12.40;87.29
68128;SHT30;54931;52.098;21.006;2022-09-09T04:17:16;12.43;87.39
68128;SHT30;54931;52.098;21.006;2022-09-09T04:19:43;12.46;87.18
68128;SHT30;54931;52.098;21.006;2022-09-09T04:22:10;12.42;87.40
68128;SHT30;54931;52.098;21.006;2022-09-09T04:24:37;12.42;87.47
68128;SHT30;54931;52.098;21.006;2022-09-09T04:27:04;12.44;87.40
68128;SHT30;54931;52.098;21.006;2022-09-09T04:29:31;12.44;87.45
68128;SHT30;54931;52.098;21.006;2022-09-09T04:31:58;12.44;87.50
68128;SHT30;54931;52.098;21.006;2022-09-09T04:34:25;12.48;87.43
68128;SHT30;54931;52.098;21.006;2022-09-09T04:36:52;12.50;87.42
68128;SHT30;54931;52.098;21.006;2022-09-09T04:39:19;12.49;87.45
68128;SHT30;54931;52.098;21.006;2022-09-09T04:41:46;12.53;87.32
68128;SHT30;54931;52.098;21.006;2022-09-09T04:44:13;12.52;87.33
68128;SHT30;54931;52.098;21.006;2022-09-09T04:46:40;12.54;87.35
68128;SHT30;54931;52.098;21.006;2022-09-09T04:49:08;12.55;87.22
68128;SHT30;54931;52.098;21.006;2022-09-09T04:51:34;12.58;87.17
68128;SHT30;54931;52.098;21.006;2022-09-09T04:54:01;12.61;87.10
68128;SHT30;54931;52.098;21.006;2022-09-09T04:56:28;12.65;87.05
68128;SHT30;54931;52.098;21.006;2022-09-09T04:58:55;12.68;86.96
68128;SHT30;54931;52.098;21.006;2022-09-09T05:01:23;12.68;87.08
68128;SHT30;54931;52.098;21.006;2022-09-09T05:03:51;12.65;87.26
68128;SHT30;54931;52.098;21.006;2022-09-09T05:06:20;12.65;87.18
68128;SHT30;54931;52.098;21.006;2022-09-09T05:08:48;12.66;87.17
68128;SHT30;54931;52.098;21.006;2022-09-09T05:11:20;12.69;86.95
68128;SHT30;54931;52.098;21.006;2022-09-09T05:13:52;12.72;87.05
68128;SHT30;54931;52.098;21.006;2022-09-09T05:16:20;12.73;87.12
68128;SHT30;54931;52.098;21.006;2022-09-09T05:18:49;12.76;87.14
68128;SHT30;54931;52.098;21.006;2022-09-09T05:21:20;12.76;86.85
68128;SHT30;54931;52.098;21.006;2022-09-09T05:23:49;12.77;87.09
68128;SHT30;54931;52.098;21.006;2022-09-09T05:26:21;12.79;86.87
68128;SHT30;54931;52.098;21.006;2022-09-09T05:28:49;12.80;87.06
68128;SHT30;54931;52.098;21.006;2022-09-09T05:31:17;12.81;86.97
68128;SHT30;54931;52.098;21.006;2022-09-09T05:33:45;12.84;86.76
68128;SHT30;54931;52.098;21.006;2022-09-09T05:36:18;12.90;86.72
68128;SHT30;54931;52.098;21.006;2022-09-09T05:38:47;12.91;86.75
68128;SHT30;54931;52.098;21.006;2022-09-09T05:41:15;12.85;87.12
68128;SHT30;54931;52.098;21.006;2022-09-09T05:43:43;12.85;86.93
68128;SHT30;54931;52.098;21.006;2022-09-09T05:46:12;12.88;87.04
68128;SHT30;54931;52.098;21.006;2022-09-09T05:48:41;12.90;86.85
68128;SHT30;54931;52.098;21.006;2022-09-09T05:51:11;12.93;86.84
68128;SHT30;54931;52.098;21.006;2022-09-09T05:53:41;12.94;87.05
68128;SHT30;54931;52.098;21.006;2022-09-09T05:56:13;12.98;86.85
68128;SHT30;54931;52.098;21.006;2022-09-09T05:58:46;13.00;86.94
68128;SHT30;54931;52.098;21.006;2022-09-09T06:01:14;13.06;86.77
68128;SHT30;54931;52.098;21.006;2022-09-09T06:03:46;13.09;86.73
68128;SHT30;54931;52.098;21.006;2022-09-09T06:06:16;13.10;86.85
68128;SHT30;54931;52.098;21.006;2022-09-09T06:08:47;13.06;87.21
68128;SHT30;54931;52.098;21.006;2022-09-09T06:11:18;13.08;86.93
68128;SHT30;54931;52.098;21.006;2022-09-09T06:13:46;13.10;86.89
68128;SHT30;54931;52.098;21.006;2022-09-09T06:16:15;13.11;87.00
68128;SHT30;54931;52.098;21.006;2022-09-09T06:18:44;13.14;86.90
68128;SHT30;54931;52.098;21.006;2022-09-09T06:21:14;13.14;86.83
68128;SHT30;54931;52.098;21.006;2022-09-09T06:23:43;13.15;86.83
68128;SHT30;54931;52.098;21.006;2022-09-09T06:28:39;13.21;86.79
68128;SHT30;54931;52.098;21.006;2022-09-09T06:31:10;13.22;86.80
68128;SHT30;54931;52.098;21.006;2022-09-09T06:33:39;13.25;86.76
68128;SHT30;54931;52.098;21.006;2022-09-09T06:36:11;13.26;86.74
68128;SHT30;54931;52.098;21.006;2022-09-09T06:38:43;13.29;86.72
68128;SHT30;54931;52.098;21.006;2022-09-09T06:41:11;13.33;86.88
68128;SHT30;54931;52.098;21.006;2022-09-09T06:43:39;13.35;86.69
68128;SHT30;54931;52.098;21.006;2022-09-09T06:46:08;13.38;86.87
68128;SHT30;54931;52.098;21.006;2022-09-09T06:48:40;13.40;86.75
68128;SHT30;54931;52.098;21.006;2022-09-09T06:51:18;13.41;86.74
68128;SHT30;54931;52.098;21.006;2022-09-09T06:53:50;13.38;86.93
68128;SHT30;54931;52.098;21.006;2022-09-09T06:56:22;13.36;86.93
68128;SHT30;54931;52.098;21.006;2022-09-09T06:58:55;13.35;86.92
68128;SHT30;54931;52.098;21.006;2022-09-09T07:01:28;13.36;86.99
68128;SHT30;54931;52.098;21.006;2022-09-09T07:03:58;13.41;87.10
68128;SHT30;54931;52.098;21.006;2022-09-09T07:06:34;13.45;86.87
68128;SHT30;54931;52.098;21.006;2022-09-09T07:09:03;13.47;86.91
68128;SHT30;54931;52.098;21.006;2022-09-09T07:11:33;13.53;86.81
68128;SHT30;54931;52.098;21.006;2022-09-09T07:14:07;13.59;86.83
68128;SHT30;54931;52.098;21.006;2022-09-09T07:16:35;13.62;86.73
68128;SHT30;54931;52.098;21.006;2022-09-09T07:19:03;13.62;86.66
68128;SHT30;54931;52.098;21.006;2022-09-09T07:21:32;13.65;86.63
68128;SHT30;54931;52.098;21.006;2022-09-09T07:24:00;13.65;86.62
68128;SHT30;54931;52.098;21.006;2022-09-09T07:26:29;13.64;86.57
68128;SHT30;54931;52.098;21.006;2022-09-09T07:28:57;13.64;86.68
68128;SHT30;54931;52.098;21.006;2022-09-09T07:31:25;13.61;87.00
68128;SHT30;54931;52.098;21.006;2022-09-09T07:33:54;13.61;87.09
68128;SHT30;54931;52.098;21.006;2022-09-09T07:36:39;13.66;86.91
68128;SHT30;54931;52.098;21.006;2022-09-09T07:39:09;13.75;86.94
68128;SHT30;54931;52.098;21.006;2022-09-09T07:41:40;13.78;86.87
68128;SHT30;54931;52.098;21.006;2022-09-09T07:44:14;13.75;86.76
68128;SHT30;54931;52.098;21.006;2022-09-09T07:46:41;13.70;87.00
68128;SHT30;54931;52.098;21.006;2022-09-09T07:49:09;13.70;86.92
68128;SHT30;54931;52.098;21.006;2022-09-09T07:51:38;13.73;86.94
68128;SHT30;54931;52.098;21.006;2022-09-09T07:54:08;13.79;86.99
68128;SHT30;54931;52.098;21.006;2022-09-09T07:56:38;13.85;86.86
68128;SHT30;54931;52.098;21.006;2022-09-09T07:59:07;13.93;86.79
68128;SHT30;54931;52.098;21.006;2022-09-09T08:01:37;13.97;86.66
68128;SHT30;54931;52.098;21.006;2022-09-09T08:04:13;13.97;86.47
68128;SHT30;54931;52.098;21.006;2022-09-09T08:06:53;13.98;86.56
68128;SHT30;54931;52.098;21.006;2022-09-09T08:09:25;13.95;86.52
68128;SHT30;54931;52.098;21.006;2022-09-09T08:11:56;13.97;86.56
68128;SHT30;54931;52.098;21.006;2022-09-09T08:14:23;14.03;86.50
68128;SHT30;54931;52.098;21.006;2022-09-09T08:16:50;14.06;86.36
68128;SHT30;54931;52.098;21.006;2022-09-09T08:19:19;14.09;86.37
68128;SHT30;54931;52.098;21.006;2022-09-09T08:21:46;14.12;86.41
68128;SHT30;54931;52.098;21.006;2022-09-09T08:24:15;14.16;86.30
68128;SHT30;54931;52.098;21.006;2022-09-09T08:26:43;14.23;86.36
68128;SHT30;54931;52.098;21.006;2022-09-09T08:29:12;14.26;86.15
68128;SHT30;54931;52.098;21.006;2022-09-09T08:34:09;14.31;86.09
68128;SHT30;54931;52.098;21.006;2022-09-09T08:36:40;14.34;86.05
68128;SHT30;54931;52.098;21.006;2022-09-09T08:39:10;14.36;86.00
68128;SHT30;54931;52.098;21.006;2022-09-09T08:41:59;14.42;86.02
68128;SHT30;54931;52.098;21.006;2022-09-09T08:55:45;14.62;85.54
68128;SHT30;54931;52.098;21.006;2022-09-09T08:58:19;14.63;85.48
68128;SHT30;54931;52.098;21.006;2022-09-09T09:03:43;14.73;85.36
68128;SHT30;54931;52.098;21.006;2022-09-09T09:11:36;14.77;85.28
68128;SHT30;54931;52.098;21.006;2022-09-09T09:14:10;14.78;85.21
68128;SHT30;54931;52.098;21.006;2022-09-09T09:19:22;14.74;85.31
68128;SHT30;54931;52.098;21.006;2022-09-09T09:24:41;14.79;85.30
68128;SHT30;54931;52.098;21.006;2022-09-09T09:27:15;14.88;85.39
68128;SHT30;54931;52.098;21.006;2022-09-09T09:30:21;14.90;85.23
68128;SHT30;54931;52.098;21.006;2022-09-09T09:35:23;14.99;84.97
68128;SHT30;54931;52.098;21.006;2022-09-09T09:37:50;15.00;84.95
68128;SHT30;54931;52.098;21.006;2022-09-09T09:40:19;15.02;85.02
68128;SHT30;54931;52.098;21.006;2022-09-09T09:42:51;15.09;84.96
68128;SHT30;54931;52.098;21.006;2022-09-09T09:45:31;15.13;84.77
68128;SHT30;54931;52.098;21.006;2022-09-09T09:48:04;15.20;84.87
68128;SHT30;54931;52.098;21.006;2022-09-09T09:50:35;15.26;84.74
68128;SHT30;54931;52.098;21.006;2022-09-09T09:53:23;15.27;84.60
68128;SHT30;54931;52.098;21.006;2022-09-09T09:56:09;15.33;84.52
68128;SHT30;54931;52.098;21.006;2022-09-09T10:04:17;15.34;84.37
68128;SHT30;54931;52.098;21.006;2022-09-09T10:06:46;15.35;84.33
68128;SHT30;54931;52.098;21.006;2022-09-09T10:09:21;15.39;84.22
68128;SHT30;54931;52.098;21.006;2022-09-09T10:11:53;15.44;84.17
68128;SHT30;54931;52.098;21.006;2022-09-09T10:14:27;15.44;84.12
68128;SHT30;54931;52.098;21.006;2022-09-09T10:19:36;15.34;84.28
68128;SHT30;54931;52.098;21.006;2022-09-09T10:22:27;15.33;84.26
68128;SHT30;54931;52.098;21.006;2022-09-09T10:30:33;15.37;84.39
68128;SHT30;54931;52.098;21.006;2022-09-09T10:33:30;15.35;84.34
68128;SHT30;54931;52.098;21.006;2022-09-09T10:36:21;15.33;84.52
68128;SHT30;54931;52.098;21.006;2022-09-09T10:39:14;15.33;84.43
68128;SHT30;54931;52.098;21.006;2022-09-09T10:42:06;15.32;84.51
68128;SHT30;54931;52.098;21.006;2022-09-09T10:45:00;15.35;84.65
68128;SHT30;54931;52.098;21.006;2022-09-09T10:47:33;15.39;84.66
68128;SHT30;54931;52.098;21.006;2022-09-09T10:56:01;15.43;84.61
68128;SHT30;54931;52.098;21.006;2022-09-09T10:59:07;15.48;84.61
68128;SHT30;54931;52.098;21.006;2022-09-09T11:01:51;15.51;84.46
68128;SHT30;54931;52.098;21.006;2022-09-09T11:04:31;15.48;84.50
68128;SHT30;54931;52.098;21.006;2022-09-09T11:07:06;15.54;84.62
68128;SHT30;54931;52.098;21.006;2022-09-09T11:09:38;15.59;84.43
68128;SHT30;54931;52.098;21.006;2022-09-09T11:12:12;15.67;84.38
68128;SHT30;54931;52.098;21.006;2022-09-09T11:14:47;15.71;84.38
68128;SHT30;54931;52.098;21.006;2022-09-09T11:17:20;15.69;84.32
68128;SHT30;54931;52.098;21.006;2022-09-09T11:19:51;15.64;84.28
68128;SHT30;54931;52.098;21.006;2022-09-09T11:22:25;15.63;84.42
68128;SHT30;54931;52.098;21.006;2022-09-09T11:27:29;15.73;84.34
68128;SHT30;54931;52.098;21.006;2022-09-09T11:35:33;15.95;84.06
68128;SHT30;54931;52.098;21.006;2022-09-09T11:38:21;15.91;83.84
68128;SHT30;54931;52.098;21.006;2022-09-09T11:40:57;15.82;84.02
68128;SHT30;54931;52.098;21.006;2022-09-09T11:43:28;15.81;84.15
68128;SHT30;54931;52.098;21.006;2022-09-09T11:46:00;15.79;84.12
68128;SHT30;54931;52.098;21.006;2022-09-09T11:48:39;15.81;84.26
68128;SHT30;54931;52.098;21.006;2022-09-09T11:51:13;15.88;84.26
68128;SHT30;54931;52.098;21.006;2022-09-09T11:53:54;15.88;84.18
68128;SHT30;54931;52.098;21.006;2022-09-09T11:56:25;15.85;84.11
68128;SHT30;54931;52.098;21.006;2022-09-09T11:59:02;15.82;84.21
68128;SHT30;54931;52.098;21.006;2022-09-09T12:04:26;15.78;84.45
68128;SHT30;54931;52.098;21.006;2022-09-09T12:09:58;15.72;84.63
68128;SHT30;54931;52.098;21.006;2022-09-09T12:12:35;15.69;84.58
68128;SHT30;54931;52.098;21.006;2022-09-09T12:17:44;15.80;84.66
68128;SHT30;54931;52.098;21.006;2022-09-09T12:20:23;15.89;84.62
68128;SHT30;54931;52.098;21.006;2022-09-09T12:28:52;16.04;84.61
68128;SHT30;54931;52.098;21.006;2022-09-09T12:31:55;16.10;84.31
68128;SHT30;54931;52.098;21.006;2022-09-09T12:37:08;16.15;84.09
68128;SHT30;54931;52.098;21.006;2022-09-09T12:39:49;16.14;83.86
68128;SHT30;54931;52.098;21.006;2022-09-09T12:42:22;16.09;84.19
68128;SHT30;54931;52.098;21.006;2022-09-09T12:45:00;16.08;84.25
68128;SHT30;54931;52.098;21.006;2022-09-09T12:47:40;16.18;84.30
68128;SHT30;54931;52.098;21.006;2022-09-09T12:50:19;16.31;84.24
68128;SHT30;54931;52.098;21.006;2022-09-09T12:52:50;16.31;83.93
68128;SHT30;54931;52.098;21.006;2022-09-09T12:55:24;16.32;83.80
68128;SHT30;54931;52.098;21.006;2022-09-09T12:57:56;16.34;83.85
68128;SHT30;54931;52.098;21.006;2022-09-09T13:00:26;16.40;83.91
68128;SHT30;54931;52.098;21.006;2022-09-09T13:02:58;16.42;83.66
68128;SHT30;54931;52.098;21.006;2022-09-09T13:05:41;16.29;83.54
68128;SHT30;54931;52.098;21.006;2022-09-09T13:08:09;16.23;83.64
68128;SHT30;54931;52.098;21.006;2022-09-09T13:10:44;16.23;83.88
68128;SHT30;54931;52.098;21.006;2022-09-09T13:13:22;16.24;83.92
68128;SHT30;54931;52.098;21.006;2022-09-09T13:15:53;16.24;83.77
68128;SHT30;54931;52.098;21.006;2022-09-09T13:18:24;16.17;83.98
68128;SHT30;54931;52.098;21.006;2022-09-09T13:21:00;16.09;84.21
68128;SHT30;54931;52.098;21.006;2022-09-09T13:23:29;16.02;84.30
68128;SHT30;54931;52.098;21.006;2022-09-09T13:25:59;16.00;84.54
68128;SHT30;54931;52.098;21.006;2022-09-09T13:28:48;15.98;84.76
68128;SHT30;54931;52.098;21.006;2022-09-09T13:31:29;16.01;84.71
68128;SHT30;54931;52.098;21.006;2022-09-09T13:33:59;15.95;84.79
68128;SHT30;54931;52.098;21.006;2022-09-09T13:36:30;15.89;84.81
68128;SHT30;54931;52.098;21.006;2022-09-09T13:38:59;15.90;84.94
68128;SHT30;54931;52.098;21.006;2022-09-09T13:41:35;15.89;84.96
68128;SHT30;54931;52.098;21.006;2022-09-09T13:44:03;15.81;85.07
68128;SHT30;54931;52.098;21.006;2022-09-09T13:46:33;15.70;85.63
68128;SHT30;54931;52.098;21.006;2022-09-09T13:51:39;15.67;85.56
68128;SHT30;54931;52.098;21.006;2022-09-09T13:54:15;15.71;85.51
68128;SHT30;54931;52.098;21.006;2022-09-09T13:56:44;15.74;85.49
68128;SHT30;54931;52.098;21.006;2022-09-09T13:59:16;15.72;85.47
68128;SHT30;54931;52.098;21.006;2022-09-09T14:01:48;15.67;85.74
68128;SHT30;54931;52.098;21.006;2022-09-09T14:04:19;15.65;85.59
68128;SHT30;54931;52.098;21.006;2022-09-09T14:06:49;15.61;85.86
68128;SHT30;54931;52.098;21.006;2022-09-09T14:09:17;15.62;85.72
68128;SHT30;54931;52.098;21.006;2022-09-09T14:11:44;15.65;85.72
68128;SHT30;54931;52.098;21.006;2022-09-09T14:14:12;15.67;85.68
68128;SHT30;54931;52.098;21.006;2022-09-09T14:16:40;15.67;85.55
68128;SHT30;54931;52.098;21.006;2022-09-09T14:19:08;15.66;85.53
68128;SHT30;54931;52.098;21.006;2022-09-09T14:21:36;15.68;85.48
68128;SHT30;54931;52.098;21.006;2022-09-09T14:24:03;15.75;85.37
68128;SHT30;54931;52.098;21.006;2022-09-09T14:26:30;15.80;85.32
68128;SHT30;54931;52.098;21.006;2022-09-09T14:28:57;15.83;85.03
68128;SHT30;54931;52.098;21.006;2022-09-09T14:31:24;15.86;84.98
68128;SHT30;54931;52.098;21.006;2022-09-09T14:33:52;15.91;84.91
68128;SHT30;54931;52.098;21.006;2022-09-09T14:36:19;15.93;84.69
68128;SHT30;54931;52.098;21.006;2022-09-09T14:38:46;15.96;84.40
68128;SHT30;54931;52.098;21.006;2022-09-09T14:41:15;16.07;84.47
68128;SHT30;54931;52.098;21.006;2022-09-09T14:43:44;16.10;83.98
68128;SHT30;54931;52.098;21.006;2022-09-09T14:46:13;16.11;84.14
68128;SHT30;54931;52.098;21.006;2022-09-09T14:48:42;16.16;84.03
68128;SHT30;54931;52.098;21.006;2022-09-09T14:51:11;16.22;84.02
68128;SHT30;54931;52.098;21.006;2022-09-09T14:53:42;16.29;83.78
68128;SHT30;54931;52.098;21.006;2022-09-09T14:56:12;16.34;83.47
68128;SHT30;54931;52.098;21.006;2022-09-09T14:58:41;16.38;83.30
68128;SHT30;54931;52.098;21.006;2022-09-09T15:01:09;16.40;83.27
68128;SHT30;54931;52.098;21.006;2022-09-09T15:03:38;16.45;83.29
68128;SHT30;54931;52.098;21.006;2022-09-09T15:06:07;16.50;82.99
68128;SHT30;54931;52.098;21.006;2022-09-09T15:08:37;16.45;82.59
68128;SHT30;54931;52.098;21.006;2022-09-09T15:11:05;16.37;82.75
68128;SHT30;54931;52.098;21.006;2022-09-09T15:13:37;16.25;82.92
68128;SHT30;54931;52.098;21.006;2022-09-09T15:16:16;16.20;83.14
68128;SHT30;54931;52.098;21.006;2022-09-09T15:18:44;16.10;83.52
68128;SHT30;54931;52.098;21.006;2022-09-09T15:21:13;16.05;83.57
68128;SHT30;54931;52.098;21.006;2022-09-09T15:23:43;16.06;83.63
68128;SHT30;54931;52.098;21.006;2022-09-09T15:26:10;16.08;83.61
68128;SHT30;54931;52.098;21.006;2022-09-09T15:28:40;16.07;83.67
68128;SHT30;54931;52.098;21.006;2022-09-09T15:33:38;16.03;83.74
68128;SHT30;54931;52.098;21.006;2022-09-09T15:36:40;16.04;83.71
68128;SHT30;54931;52.098;21.006;2022-09-09T15:39:04;16.10;83.60
68128;SHT30;54931;52.098;21.006;2022-09-09T15:41:33;16.17;83.52
68128;SHT30;54931;52.098;21.006;2022-09-09T15:44:01;16.24;83.28
68128;SHT30;54931;52.098;21.006;2022-09-09T15:46:32;16.21;83.03
68128;SHT30;54931;52.098;21.006;2022-09-09T15:49:05;16.12;83.23
68128;SHT30;54931;52.098;21.006;2022-09-09T15:51:38;16.08;83.39
68128;SHT30;54931;52.098;21.006;2022-09-09T15:54:09;16.03;83.48
68128;SHT30;54931;52.098;21.006;2022-09-09T15:56:50;15.98;83.60
68128;SHT30;54931;52.098;21.006;2022-09-09T15:59:21;15.95;83.52
68128;SHT30;54931;52.098;21.006;2022-09-09T16:01:49;15.90;83.99
68128;SHT30;54931;52.098;21.006;2022-09-09T16:04:21;15.85;83.92
68128;SHT30;54931;52.098;21.006;2022-09-09T16:06:53;15.81;84.10
68128;SHT30;54931;52.098;21.006;2022-09-09T16:09:31;15.80;83.98
68128;SHT30;54931;52.098;21.006;2022-09-09T16:11:59;15.75;84.36
68128;SHT30;54931;52.098;21.006;2022-09-09T16:14:32;15.74;84.33
68128;SHT30;54931;52.098;21.006;2022-09-09T16:17:00;15.77;84.18
68128;SHT30;54931;52.098;21.006;2022-09-09T16:19:29;15.80;84.15
68128;SHT30;54931;52.098;21.006;2022-09-09T16:21:56;15.79;84.25
68128;SHT30;54931;52.098;21.006;2022-09-09T16:24:23;15.76;84.24
68128;SHT30;54931;52.098;21.006;2022-09-09T16:26:52;15.75;84.20
68128;SHT30;54931;52.098;21.006;2022-09-09T16:29:21;15.74;84.11
68128;SHT30;54931;52.098;21.006;2022-09-09T16:31:49;15.75;84.19
68128;SHT30;54931;52.098;21.006;2022-09-09T16:34:17;15.77;84.04
68128;SHT30;54931;52.098;21.006;2022-09-09T16:36:45;15.79;83.94
68128;SHT30;54931;52.098;21.006;2022-09-09T16:39:14;15.79;83.94
68128;SHT30;54931;52.098;21.006;2022-09-09T16:41:44;15.77;83.93
68128;SHT30;54931;52.098;21.006;2022-09-09T16:44:14;15.72;84.10
68128;SHT30;54931;52.098;21.006;2022-09-09T16:46:45;15.71;84.06
68128;SHT30;54931;52.098;21.006;2022-09-09T16:49:15;15.71;84.03
68128;SHT30;54931;52.098;21.006;2022-09-09T16:51:46;15.69;84.08
68128;SHT30;54931;52.098;21.006;2022-09-09T16:54:16;15.64;84.32
68128;SHT30;54931;52.098;21.006;2022-09-09T16:56:46;15.58;84.51
68128;SHT30;54931;52.098;21.006;2022-09-09T16:59:20;15.52;84.67
68128;SHT30;54931;52.098;21.006;2022-09-09T17:01:49;15.47;84.80
68128;SHT30;54931;52.098;21.006;2022-09-09T17:04:19;15.46;84.79
68128;SHT30;54931;52.098;21.006;2022-09-09T17:06:52;15.45;84.88
68128;SHT30;54931;52.098;21.006;2022-09-09T17:09:21;15.43;84.91
68128;SHT30;54931;52.098;21.006;2022-09-09T17:11:50;15.44;84.89
68128;SHT30;54931;52.098;21.006;2022-09-09T17:14:19;15.45;84.86
68128;SHT30;54931;52.098;21.006;2022-09-09T17:16:48;15.41;85.10
68128;SHT30;54931;52.098;21.006;2022-09-09T17:19:16;15.35;85.43
68128;SHT30;54931;52.098;21.006;2022-09-09T17:21:44;15.30;85.43
68128;SHT30;54931;52.098;21.006;2022-09-09T17:24:13;15.28;85.44
68128;SHT30;54931;52.098;21.006;2022-09-09T17:26:41;15.22;85.74
68128;SHT30;54931;52.098;21.006;2022-09-09T17:29:08;15.19;85.69
68128;SHT30;54931;52.098;21.006;2022-09-09T17:31:37;15.13;85.88
68128;SHT30;54931;52.098;21.006;2022-09-09T17:34:06;15.05;86.22
68128;SHT30;54931;52.098;21.006;2022-09-09T17:36:35;15.04;86.13
68128;SHT30;54931;52.098;21.006;2022-09-09T17:39:03;15.02;86.20
68128;SHT30;54931;52.098;21.006;2022-09-09T17:41:32;15.00;86.42
68128;SHT30;54931;52.098;21.006;2022-09-09T17:44:01;15.00;86.21
68128;SHT30;54931;52.098;21.006;2022-09-09T17:46:31;15.00;86.21
68128;SHT30;54931;52.098;21.006;2022-09-09T17:49:04;14.97;86.44
68128;SHT30;54931;52.098;21.006;2022-09-09T17:51:33;14.97;86.35
68128;SHT30;54931;52.098;21.006;2022-09-09T17:54:02;14.96;86.39
68128;SHT30;54931;52.098;21.006;2022-09-09T17:56:32;14.94;86.54
68128;SHT30;54931;52.098;21.006;2022-09-09T17:59:02;14.94;86.30
68128;SHT30;54931;52.098;21.006;2022-09-09T18:01:32;14.94;86.43
68128;SHT30;54931;52.098;21.006;2022-09-09T18:04:02;14.95;86.23
68128;SHT30;54931;52.098;21.006;2022-09-09T18:06:31;14.96;86.16
68128;SHT30;54931;52.098;21.006;2022-09-09T18:09:02;14.97;86.20